Time;durP1;ratioP1;P1;durP2;ratioP2;P2;SDS_P1;SDS_P2;PMS_P1;PMS_P2;Temp;Humidity;BMP_temperature;BMP_pressure;BME280_temperature;BME280_humidity;BME280_pressure;Samples;Min_cycle;Max_cycle;Signal;HPM_P1;HPM_P2
2023/09/30 00:00:32;;;;;;;11.10;4.43;;;;;;;;;;5082459;28;20231;-43
2023/09/30 00:03:00;;;;;;;11.23;4.57;;;;;;;;;;5090726;28;20202;-44
2023/09/30 00:05:28;;;;;;;10.83;4.07;;;;;;;;;;5087469;28;20202;-43
2023/09/30 00:07:55;;;;;;;8.80;4.37;;;;;;;;;;5088210;28;20216;-46
2023/09/30 00:10:22;;;;;;;9.53;4.33;;;;;;;;;;5079720;28;20259;-42
2023/09/30 00:12:49;;;;;;;8.40;4.30;;;;;;;;;;5088790;28;20339;-40
2023/09/30 00:15:16;;;;;;;7.80;4.20;;;;;;;;;;5092756;28;20260;-39
2023/09/30 00:17:45;;;;;;;10.20;4.07;;;;;;;;;;5080909;28;20281;-44
2023/09/30 00:20:14;;;;;;;7.03;3.70;;;;;;;;;;5081238;28;20226;-44
2023/09/30 00:22:41;;;;;;;11.27;4.27;;;;;;;;;;5081161;28;20676;-41
2023/09/30 00:25:09;;;;;;;8.00;4.03;;;;;;;;;;5081321;28;20246;-44
2023/09/30 00:27:37;;;;;;;10.20;4.40;;;;;;;;;;5088290;28;20212;-43
2023/09/30 00:30:04;;;;;;;10.60;4.27;;;;;;;;;;5093245;28;20230;-39
2023/09/30 00:32:31;;;;;;;10.57;4.40;;;;;;;;;;5083854;28;20245;-44
2023/09/30 00:35:02;;;;;;;10.07;3.80;;;;;;;;;;5081910;28;20203;-44
2023/09/30 00:37:29;;;;;;;8.13;4.13;;;;;;;;;;5089674;28;20288;-43
2023/09/30 00:39:57;;;;;;;10.23;3.73;;;;;;;;;;5081777;28;20231;-40
2023/09/30 00:42:24;;;;;;;10.13;4.60;;;;;;;;;;5086322;28;20740;-43
2023/09/30 00:44:51;;;;;;;9.20;3.90;;;;;;;;;;5092317;28;20213;-42
2023/09/30 00:47:20;;;;;;;10.07;4.43;;;;;;;;;;5084157;28;20241;-43
2023/09/30 00:49:47;;;;;;;7.50;3.73;;;;;;;;;;5080401;28;20218;-41
2023/09/30 00:52:15;;;;;;;7.80;3.90;;;;;;;;;;5081161;28;20308;-41
2023/09/30 00:54:43;;;;;;;10.63;4.20;;;;;;;;;;5075292;28;20223;-42
2023/09/30 00:57:11;;;;;;;8.50;4.23;;;;;;;;;;5082725;28;20202;-39
2023/09/30 00:59:39;;;;;;;7.97;3.97;;;;;;;;;;5078974;28;20227;-43
2023/09/30 01:02:07;;;;;;;8.90;4.17;;;;;;;;;;5083373;28;20201;-39
2023/09/30 01:04:34;;;;;;;7.43;3.57;;;;;;;;;;5079439;28;20210;-41
2023/09/30 01:07:01;;;;;;;9.40;4.27;;;;;;;;;;5080078;28;20218;-42
2023/09/30 01:09:30;;;;;;;10.23;4.33;;;;;;;;;;5084638;28;20344;-37
2023/09/30 01:11:57;;;;;;;8.97;3.63;;;;;;;;;;5075567;28;20236;-40
2023/09/30 01:14:28;;;;;;;8.47;3.77;;;;;;;;;;5086304;28;20198;-43
2023/09/30 01:16:56;;;;;;;6.40;3.83;;;;;;;;;;5076679;28;20211;-43
2023/09/30 01:19:24;;;;;;;8.63;4.20;;;;;;;;;;5085497;28;20232;-38
2023/09/30 01:21:54;;;;;;;7.83;3.77;;;;;;;;;;5080726;28;20207;-44
2023/09/30 01:24:21;;;;;;;8.47;3.07;;;;;;;;;;5070556;28;20210;-42
2023/09/30 01:26:48;;;;;;;6.37;3.27;;;;;;;;;;5074855;28;20258;-42
2023/09/30 01:29:17;;;;;;;7.37;4.43;;;;;;;;;;5077052;28;20218;-45
2023/09/30 01:31:47;;;;;;;9.20;4.53;;;;;;;;;;5068653;28;20218;-43
2023/09/30 01:34:15;;;;;;;8.00;4.03;;;;;;;;;;5073927;28;20206;-43
2023/09/30 01:36:42;;;;;;;5.70;3.37;;;;;;;;;;5084009;28;20209;-41
2023/09/30 01:39:10;;;;;;;8.47;4.23;;;;;;;;;;5083420;28;20210;-42
2023/09/30 01:41:37;;;;;;;8.93;3.63;;;;;;;;;;5075140;28;20231;-43
2023/09/30 01:44:05;;;;;;;9.83;4.40;;;;;;;;;;5085846;28;20206;-42
2023/09/30 01:46:32;;;;;;;7.10;3.80;;;;;;;;;;5074887;28;20213;-45
2023/09/30 01:48:59;;;;;;;9.10;4.10;;;;;;;;;;5089706;28;20213;-43
2023/09/30 01:51:27;;;;;;;7.40;3.67;;;;;;;;;;5089269;28;20214;-39
2023/09/30 01:53:54;;;;;;;7.70;3.80;;;;;;;;;;5076451;28;20256;-41
2023/09/30 01:56:23;;;;;;;6.23;3.40;;;;;;;;;;5081647;28;20271;-46
2023/09/30 01:58:50;;;;;;;11.17;3.87;;;;;;;;;;5087467;28;20290;-42
2023/09/30 02:01:18;;;;;;;6.50;3.33;;;;;;;;;;5071830;28;20236;-41
2023/09/30 02:03:45;;;;;;;7.70;3.73;;;;;;;;;;5082589;28;20224;-38
2023/09/30 02:06:12;;;;;;;7.00;3.47;;;;;;;;;;5089844;28;20245;-42
2023/09/30 02:08:39;;;;;;;7.13;4.03;;;;;;;;;;5084245;28;20202;-46
2023/09/30 02:11:07;;;;;;;8.37;3.53;;;;;;;;;;5085396;28;20229;-42
2023/09/30 02:13:36;;;;;;;8.73;3.43;;;;;;;;;;5090834;28;20229;-42
2023/09/30 02:16:03;;;;;;;6.57;3.90;;;;;;;;;;5083645;28;20715;-41
2023/09/30 02:18:32;;;;;;;7.03;3.83;;;;;;;;;;5083988;28;20299;-45
2023/09/30 02:21:00;;;;;;;7.03;3.60;;;;;;;;;;5084611;28;20449;-42
2023/09/30 02:23:27;;;;;;;7.80;3.80;;;;;;;;;;5079437;28;20577;-42
2023/09/30 02:25:54;;;;;;;6.50;3.83;;;;;;;;;;5080708;28;20297;-45
2023/09/30 02:28:21;;;;;;;7.07;3.77;;;;;;;;;;5083576;28;20216;-42
2023/09/30 02:30:50;;;;;;;9.67;4.23;;;;;;;;;;5083591;28;20215;-39
2023/09/30 02:33:17;;;;;;;7.70;3.37;;;;;;;;;;5084749;28;20316;-41
2023/09/30 02:35:46;;;;;;;6.80;3.13;;;;;;;;;;5086931;28;20211;-40
2023/09/30 02:38:15;;;;;;;8.07;3.47;;;;;;;;;;5091546;28;20213;-41
2023/09/30 02:40:46;;;;;;;6.77;3.77;;;;;;;;;;5080263;28;20226;-39
2023/09/30 02:43:13;;;;;;;6.87;3.50;;;;;;;;;;5080913;28;20262;-44
2023/09/30 02:45:40;;;;;;;8.40;3.57;;;;;;;;;;5073499;28;20567;-43
2023/09/30 02:48:09;;;;;;;9.20;4.30;;;;;;;;;;5091200;28;20217;-40
2023/09/30 02:50:36;;;;;;;9.33;4.00;;;;;;;;;;5085774;28;20236;-46
2023/09/30 02:53:04;;;;;;;7.37;3.77;;;;;;;;;;5090984;28;20311;-41
2023/09/30 02:55:31;;;;;;;7.87;3.60;;;;;;;;;;5087352;28;20217;-42
2023/09/30 02:57:58;;;;;;;11.20;3.70;;;;;;;;;;5090456;28;20205;-40
2023/09/30 03:00:26;;;;;;;5.20;3.00;;;;;;;;;;5091504;28;20229;-43
2023/09/30 03:02:53;;;;;;;6.63;3.60;;;;;;;;;;5074859;28;20221;-43
2023/09/30 03:05:23;;;;;;;8.33;3.10;;;;;;;;;;5088956;28;20202;-39
2023/09/30 03:07:51;;;;;;;6.33;2.97;;;;;;;;;;5081738;28;20251;-42
2023/09/30 03:10:20;;;;;;;6.30;3.17;;;;;;;;;;5083887;28;20228;-40
2023/09/30 03:12:47;;;;;;;6.47;3.47;;;;;;;;;;5087035;28;20319;-44
2023/09/30 03:15:14;;;;;;;6.87;3.40;;;;;;;;;;5071322;28;20724;-42
2023/09/30 03:17:41;;;;;;;5.90;2.93;;;;;;;;;;5088334;28;20205;-44
2023/09/30 03:20:11;;;;;;;6.87;3.40;;;;;;;;;;5081320;28;20230;-42
2023/09/30 03:22:42;;;;;;;7.13;3.17;;;;;;;;;;5089248;28;20281;-43
2023/09/30 03:25:09;;;;;;;6.63;3.23;;;;;;;;;;5085304;28;20210;-42
2023/09/30 03:27:37;;;;;;;6.50;2.80;;;;;;;;;;5087033;28;20212;-41
2023/09/30 03:30:05;;;;;;;7.40;3.10;;;;;;;;;;5078089;28;20240;-41
2023/09/30 03:32:33;;;;;;;7.53;3.17;;;;;;;;;;5078968;28;20225;-41
2023/09/30 03:35:00;;;;;;;6.97;3.10;;;;;;;;;;5079166;28;20256;-44
2023/09/30 03:37:28;;;;;;;7.27;2.90;;;;;;;;;;5090178;28;20221;-42
2023/09/30 03:39:57;;;;;;;5.30;2.60;;;;;;;;;;5074015;28;20240;-41
2023/09/30 03:42:25;;;;;;;5.97;2.60;;;;;;;;;;5079757;28;20209;-40
2023/09/30 03:44:53;;;;;;;6.43;2.43;;;;;;;;;;5078683;28;20789;-43
2023/09/30 03:47:21;;;;;;;4.40;2.30;;;;;;;;;;5085431;28;20201;-39
2023/09/30 03:49:48;;;;;;;5.17;2.63;;;;;;;;;;5083999;28;20253;-42
2023/09/30 03:52:16;;;;;;;6.20;3.00;;;;;;;;;;5075684;28;20221;-42
2023/09/30 03:54:43;;;;;;;5.63;3.20;;;;;;;;;;5087416;28;20216;-44
2023/09/30 03:57:12;;;;;;;4.10;2.40;;;;;;;;;;5083105;28;20206;-44
2023/09/30 03:59:40;;;;;;;4.47;2.70;;;;;;;;;;5089360;28;20225;-40
2023/09/30 04:02:08;;;;;;;6.70;2.80;;;;;;;;;;5085496;28;20218;-41
2023/09/30 04:04:37;;;;;;;5.30;2.43;;;;;;;;;;5079793;28;20201;-45
2023/09/30 04:07:05;;;;;;;5.10;2.30;;;;;;;;;;5076834;28;20289;-45
2023/09/30 04:09:32;;;;;;;5.17;2.80;;;;;;;;;;5069545;28;20229;-42
2023/09/30 04:12:01;;;;;;;6.20;2.90;;;;;;;;;;5075068;28;20280;-42
2023/09/30 04:14:29;;;;;;;5.53;2.93;;;;;;;;;;5071082;28;20213;-43
2023/09/30 04:16:56;;;;;;;4.97;2.50;;;;;;;;;;5077709;28;20216;-42
2023/09/30 04:19:23;;;;;;;6.03;2.90;;;;;;;;;;5082488;28;20219;-46
2023/09/30 04:21:50;;;;;;;5.10;2.63;;;;;;;;;;5086996;28;20217;-37
2023/09/30 04:24:19;;;;;;;6.27;2.60;;;;;;;;;;5081494;28;20204;-39
2023/09/30 04:26:48;;;;;;;5.90;2.77;;;;;;;;;;5083553;28;20212;-43
2023/09/30 04:29:15;;;;;;;4.17;2.23;;;;;;;;;;5075257;28;20234;-41
2023/09/30 04:31:43;;;;;;;4.80;2.50;;;;;;;;;;5087390;28;20209;-43
2023/09/30 04:34:11;;;;;;;4.10;2.47;;;;;;;;;;5076250;28;20229;-43
2023/09/30 04:36:38;;;;;;;6.93;2.50;;;;;;;;;;5082966;28;20208;-40
2023/09/30 04:39:05;;;;;;;4.33;2.57;;;;;;;;;;5092354;28;20722;-39
2023/09/30 04:41:32;;;;;;;3.30;2.10;;;;;;;;;;5088171;28;20204;-38
2023/09/30 04:44:00;;;;;;;5.23;2.50;;;;;;;;;;5085648;28;20206;-42
2023/09/30 04:46:27;;;;;;;8.67;2.83;;;;;;;;;;5083427;28;20208;-45
2023/09/30 04:48:56;;;;;;;4.87;2.67;;;;;;;;;;5079754;28;20216;-43
2023/09/30 04:51:25;;;;;;;4.73;2.47;;;;;;;;;;5085334;28;20528;-42
2023/09/30 04:53:54;;;;;;;3.60;1.83;;;;;;;;;;5089307;28;20266;-43
2023/09/30 04:56:21;;;;;;;4.17;1.93;;;;;;;;;;5081026;28;20209;-45
2023/09/30 04:58:49;;;;;;;5.13;2.37;;;;;;;;;;5089596;28;20288;-45
2023/09/30 05:01:18;;;;;;;4.30;2.10;;;;;;;;;;5080287;28;20226;-40
2023/09/30 05:03:48;;;;;;;4.67;2.20;;;;;;;;;;5079123;28;20217;-44
2023/09/30 05:06:17;;;;;;;4.47;2.77;;;;;;;;;;5091989;28;20261;-43
2023/09/30 05:08:44;;;;;;;4.30;2.67;;;;;;;;;;5082354;28;20206;-44
2023/09/30 05:11:11;;;;;;;4.97;2.63;;;;;;;;;;5079107;28;20323;-42
2023/09/30 05:13:38;;;;;;;3.80;2.40;;;;;;;;;;5083207;28;20233;-40
2023/09/30 05:16:07;;;;;;;4.60;2.30;;;;;;;;;;5088015;28;20205;-40
2023/09/30 05:18:34;;;;;;;4.87;2.20;;;;;;;;;;5080360;28;20201;-44
2023/09/30 05:21:01;;;;;;;5.30;2.80;;;;;;;;;;5091618;28;20216;-41
2023/09/30 05:23:30;;;;;;;4.23;2.30;;;;;;;;;;5085059;28;20202;-42
2023/09/30 05:25:57;;;;;;;4.63;2.43;;;;;;;;;;5086910;28;20216;-39
2023/09/30 05:28:24;;;;;;;3.27;2.20;;;;;;;;;;5091483;28;20207;-35
2023/09/30 05:30:53;;;;;;;3.53;2.33;;;;;;;;;;5080989;28;20308;-45
2023/09/30 05:33:20;;;;;;;4.23;2.67;;;;;;;;;;5090083;28;20261;-44
2023/09/30 05:35:47;;;;;;;5.70;2.63;;;;;;;;;;5073775;28;20203;-42
2023/09/30 05:38:14;;;;;;;6.27;2.93;;;;;;;;;;5071644;28;20288;-43
2023/09/30 05:40:44;;;;;;;3.90;1.83;;;;;;;;;;5080819;28;20233;-40
2023/09/30 05:43:13;;;;;;;4.30;2.53;;;;;;;;;;5092017;28;20197;-45
2023/09/30 05:45:48;;;;;;;3.90;1.83;;;;;;;;;;5085269;28;20200;-41
2023/09/30 05:48:16;;;;;;;3.70;2.17;;;;;;;;;;5080998;28;20559;-43
2023/09/30 05:50:43;;;;;;;3.53;2.37;;;;;;;;;;5092294;28;20307;-46
2023/09/30 05:53:11;;;;;;;4.30;2.53;;;;;;;;;;5088609;28;20209;-43
2023/09/30 05:55:41;;;;;;;4.73;2.40;;;;;;;;;;5092979;28;20221;-42
2023/09/30 05:58:10;;;;;;;4.10;2.27;;;;;;;;;;5095032;28;20204;-44
2023/09/30 06:00:37;;;;;;;6.10;2.73;;;;;;;;;;5079232;28;20227;-42
2023/09/30 06:03:07;;;;;;;5.43;2.70;;;;;;;;;;5075898;28;20194;-45
2023/09/30 06:05:34;;;;;;;4.40;2.20;;;;;;;;;;5089916;28;20231;-40
2023/09/30 06:08:04;;;;;;;4.70;3.27;;;;;;;;;;5091603;28;20296;-39
2023/09/30 06:10:31;;;;;;;5.90;2.60;;;;;;;;;;5076034;28;20220;-42
2023/09/30 06:12:59;;;;;;;4.83;2.63;;;;;;;;;;5086842;28;20230;-39
2023/09/30 06:15:28;;;;;;;5.97;2.60;;;;;;;;;;5087497;28;20284;-41
2023/09/30 06:17:55;;;;;;;4.43;2.40;;;;;;;;;;5075230;28;20219;-38
2023/09/30 06:20:25;;;;;;;3.73;2.13;;;;;;;;;;5079567;28;20225;-46
2023/09/30 06:22:53;;;;;;;4.30;2.43;;;;;;;;;;5085184;28;20243;-42
2023/09/30 06:25:23;;;;;;;4.53;2.50;;;;;;;;;;5086155;28;20260;-42
2023/09/30 06:27:50;;;;;;;4.63;2.47;;;;;;;;;;5090890;28;20208;-45
2023/09/30 06:30:19;;;;;;;5.50;2.20;;;;;;;;;;5083480;28;20228;-43
2023/09/30 06:32:47;;;;;;;3.43;2.00;;;;;;;;;;5083254;28;20210;-43
2023/09/30 06:35:15;;;;;;;4.03;2.20;;;;;;;;;;5083775;28;20197;-44
2023/09/30 06:37:42;;;;;;;5.43;2.87;;;;;;;;;;5094435;28;20288;-38
2023/09/30 06:40:11;;;;;;;3.73;2.33;;;;;;;;;;5082812;28;20225;-44
2023/09/30 06:42:39;;;;;;;4.07;2.60;;;;;;;;;;5088757;28;20208;-41
2023/09/30 06:45:07;;;;;;;5.37;2.83;;;;;;;;;;5082630;28;20268;-42
2023/09/30 06:47:34;;;;;;;5.43;2.80;;;;;;;;;;5082383;28;20226;-41
2023/09/30 06:50:07;;;;;;;3.77;2.90;;;;;;;;;;5080671;28;20226;-40
2023/09/30 06:52:35;;;;;;;4.47;2.73;;;;;;;;;;5085781;28;20227;-40
2023/09/30 06:55:04;;;;;;;5.47;2.97;;;;;;;;;;5080602;28;20232;-40
2023/09/30 06:57:31;;;;;;;5.63;2.90;;;;;;;;;;5081176;28;20205;-41
2023/09/30 06:59:58;;;;;;;5.37;3.30;;;;;;;;;;5082855;28;20320;-42
2023/09/30 07:02:25;;;;;;;3.93;2.20;;;;;;;;;;5080005;28;20229;-42
2023/09/30 07:04:53;;;;;;;5.20;3.30;;;;;;;;;;5086616;28;20211;-43
2023/09/30 07:07:21;;;;;;;5.00;2.30;;;;;;;;;;5079627;28;20206;-41
2023/09/30 07:09:49;;;;;;;4.60;2.30;;;;;;;;;;5074607;28;20321;-42
2023/09/30 07:12:16;;;;;;;4.17;2.63;;;;;;;;;;5081180;28;20211;-46
2023/09/30 07:14:43;;;;;;;5.70;2.50;;;;;;;;;;5081985;28;20224;-43
2023/09/30 07:17:11;;;;;;;5.10;3.03;;;;;;;;;;5084645;28;20211;-45
2023/09/30 07:19:38;;;;;;;4.13;2.50;;;;;;;;;;5092434;28;20216;-39
2023/09/30 07:22:05;;;;;;;3.73;2.37;;;;;;;;;;5089971;28;20201;-41
2023/09/30 07:24:33;;;;;;;3.93;2.60;;;;;;;;;;5085890;28;20233;-44
2023/09/30 07:27:00;;;;;;;4.73;2.87;;;;;;;;;;5086073;28;20215;-39
2023/09/30 07:29:28;;;;;;;5.03;2.10;;;;;;;;;;5093853;28;20221;-41
2023/09/30 07:31:55;;;;;;;6.90;2.90;;;;;;;;;;5092111;28;20216;-41
2023/09/30 07:34:22;;;;;;;4.10;2.40;;;;;;;;;;5077047;28;20215;-41
2023/09/30 07:36:49;;;;;;;4.70;2.70;;;;;;;;;;5080504;28;20319;-42
2023/09/30 07:39:17;;;;;;;3.87;2.33;;;;;;;;;;5090611;28;20293;-41
2023/09/30 07:41:46;;;;;;;6.30;2.77;;;;;;;;;;5084053;28;20701;-44
2023/09/30 07:44:13;;;;;;;4.77;2.37;;;;;;;;;;5088273;28;20251;-42
2023/09/30 07:46:40;;;;;;;7.00;2.90;;;;;;;;;;5093027;28;20205;-43
2023/09/30 07:49:09;;;;;;;4.97;2.43;;;;;;;;;;5078393;28;20206;-43
2023/09/30 07:51:36;;;;;;;4.90;2.50;;;;;;;;;;5089034;28;20280;-43
2023/09/30 07:54:05;;;;;;;4.47;2.30;;;;;;;;;;5090687;28;20220;-41
2023/09/30 07:56:32;;;;;;;4.23;2.20;;;;;;;;;;5078304;28;20241;-42
2023/09/30 07:59:01;;;;;;;3.07;2.00;;;;;;;;;;5088556;28;20216;-44
2023/09/30 08:01:30;;;;;;;11.73;2.10;;;;;;;;;;5078026;28;20202;-41
2023/09/30 08:03:57;;;;;;;5.13;2.30;;;;;;;;;;5080992;28;20205;-44
2023/09/30 08:06:24;;;;;;;5.87;2.93;;;;;;;;;;5084562;28;20197;-44
2023/09/30 08:08:51;;;;;;;5.70;2.53;;;;;;;;;;5082659;28;20225;-40
2023/09/30 08:11:20;;;;;;;2.70;2.30;;;;;;;;;;5085713;28;20226;-45
2023/09/30 08:13:53;;;;;;;4.60;2.43;;;;;;;;;;5086999;28;20227;-43
2023/09/30 08:16:22;;;;;;;4.93;2.40;;;;;;;;;;5085973;28;20240;-44
2023/09/30 08:18:49;;;;;;;7.57;3.17;;;;;;;;;;5075762;28;20213;-42
2023/09/30 08:21:16;;;;;;;5.97;2.93;;;;;;;;;;5083192;28;20221;-41
2023/09/30 08:23:44;;;;;;;6.70;2.63;;;;;;;;;;5079812;28;20199;-39
2023/09/30 08:26:11;;;;;;;4.37;2.23;;;;;;;;;;5089287;28;20231;-46
2023/09/30 08:28:38;;;;;;;4.00;2.67;;;;;;;;;;5084035;28;20211;-41
2023/09/30 08:31:05;;;;;;;4.70;2.50;;;;;;;;;;5089679;28;20323;-45
2023/09/30 08:33:35;;;;;;;6.70;2.60;;;;;;;;;;5076733;28;20210;-40
2023/09/30 08:36:06;;;;;;;3.07;2.30;;;;;;;;;;5085186;28;20202;-41
2023/09/30 08:38:34;;;;;;;4.37;2.60;;;;;;;;;;5088061;28;20239;-41
2023/09/30 08:41:02;;;;;;;3.20;2.20;;;;;;;;;;5083401;28;20237;-40
2023/09/30 08:43:31;;;;;;;4.07;2.67;;;;;;;;;;5083556;28;20233;-44
2023/09/30 08:45:59;;;;;;;6.37;2.90;;;;;;;;;;5089265;28;20231;-45
2023/09/30 08:48:27;;;;;;;3.57;2.30;;;;;;;;;;5089767;28;20202;-43
2023/09/30 08:50:57;;;;;;;3.03;2.33;;;;;;;;;;5088000;28;20236;-43
2023/09/30 08:53:24;;;;;;;5.87;2.80;;;;;;;;;;5091815;28;20207;-44
2023/09/30 08:55:54;;;;;;;3.93;2.63;;;;;;;;;;5078581;28;20228;-44
2023/09/30 08:58:21;;;;;;;3.33;2.40;;;;;;;;;;5086704;28;20203;-44
2023/09/30 09:00:49;;;;;;;6.23;2.83;;;;;;;;;;5089813;28;20339;-42
2023/09/30 09:03:16;;;;;;;7.50;2.70;;;;;;;;;;5079950;28;20204;-43
2023/09/30 09:05:43;;;;;;;4.30;2.63;;;;;;;;;;5086824;28;20208;-44
2023/09/30 09:08:12;;;;;;;4.03;2.83;;;;;;;;;;5088337;28;20213;-45
2023/09/30 09:10:54;;;;;;;3.40;2.53;;;;;;;;;;5089046;28;20226;-41
2023/09/30 09:13:21;;;;;;;4.73;2.70;;;;;;;;;;5086664;28;20205;-45
2023/09/30 09:15:49;;;;;;;5.60;2.77;;;;;;;;;;5089501;28;20226;-44
2023/09/30 09:18:32;;;;;;;3.10;2.20;;;;;;;;;;5077342;28;20199;-43
2023/09/30 09:21:10;;;;;;;4.63;2.57;;;;;;;;;;5081298;28;20262;-42
2023/09/30 09:23:42;;;;;;;3.70;3.00;;;;;;;;;;5083261;28;20215;-44
2023/09/30 09:26:09;;;;;;;5.60;2.67;;;;;;;;;;5086459;28;20436;-43
2023/09/30 09:28:38;;;;;;;2.90;2.57;;;;;;;;;;5089564;28;20199;-43
2023/09/30 09:31:20;;;;;;;3.10;2.20;;;;;;;;;;5086160;28;20700;-43
2023/09/30 09:33:47;;;;;;;5.80;3.63;;;;;;;;;;5084559;28;20199;-44
2023/09/30 09:36:14;;;;;;;4.87;2.57;;;;;;;;;;5086880;28;20199;-43
2023/09/30 09:38:47;;;;;;;4.33;2.60;;;;;;;;;;5090900;28;20230;-44
2023/09/30 09:41:15;;;;;;;2.90;2.50;;;;;;;;;;5082389;28;20234;-43
2023/09/30 09:43:43;;;;;;;6.93;2.63;;;;;;;;;;5089500;28;20205;-41
2023/09/30 09:46:10;;;;;;;4.50;2.80;;;;;;;;;;5087726;28;20210;-44
2023/09/30 09:48:37;;;;;;;9.40;3.23;;;;;;;;;;5086773;28;20220;-42
2023/09/30 09:51:07;;;;;;;4.77;2.63;;;;;;;;;;5087086;28;20318;-42
2023/09/30 09:53:36;;;;;;;4.57;2.47;;;;;;;;;;5087611;28;20215;-43
2023/09/30 09:56:05;;;;;;;4.03;2.80;;;;;;;;;;5083622;28;20241;-38
2023/09/30 09:58:34;;;;;;;5.53;2.93;;;;;;;;;;5083891;28;20207;-41
2023/09/30 10:01:02;;;;;;;6.70;2.93;;;;;;;;;;5087540;28;20227;-44
2023/09/30 10:03:30;;;;;;;4.37;2.80;;;;;;;;;;5088342;28;20318;-39
2023/09/30 10:05:57;;;;;;;7.13;2.77;;;;;;;;;;5086541;28;20199;-43
2023/09/30 10:08:31;;;;;;;4.40;2.97;;;;;;;;;;5085295;28;20298;-40
2023/09/30 10:10:59;;;;;;;5.07;2.50;;;;;;;;;;5086369;28;20230;-40
2023/09/30 10:13:45;;;;;;;6.00;3.07;;;;;;;;;;5083946;28;20207;-43
2023/09/30 10:16:39;;;;;;;6.17;3.03;;;;;;;;;;5083528;28;20227;-43
2023/09/30 10:19:10;;;;;;;7.87;3.23;;;;;;;;;;5082395;28;20209;-46
2023/09/30 10:21:37;;;;;;;6.83;3.77;;;;;;;;;;5080671;28;20561;-43
2023/09/30 10:24:19;;;;;;;5.17;2.70;;;;;;;;;;5082058;28;20633;-44
2023/09/30 10:26:46;;;;;;;5.03;2.80;;;;;;;;;;5084268;28;20208;-43
2023/09/30 10:29:13;;;;;;;6.73;3.60;;;;;;;;;;5088347;28;20294;-43
2023/09/30 10:31:52;;;;;;;5.17;3.00;;;;;;;;;;5089847;28;20211;-45
2023/09/30 10:34:23;;;;;;;6.47;3.03;;;;;;;;;;5087275;28;20205;-46
2023/09/30 10:36:52;;;;;;;5.10;2.77;;;;;;;;;;5081273;28;20297;-44
2023/09/30 10:39:49;;;;;;;4.93;3.07;;;;;;;;;;5088150;28;20230;-41
2023/09/30 10:42:43;;;;;;;4.37;3.00;;;;;;;;;;5086527;28;20214;-42
2023/09/30 10:45:38;;;;;;;7.27;3.40;;;;;;;;;;5082150;28;20207;-44
2023/09/30 10:48:20;;;;;;;6.37;3.13;;;;;;;;;;5084761;28;20295;-44
2023/09/30 10:50:52;;;;;;;7.13;3.47;;;;;;;;;;5090993;28;20252;-41
2023/09/30 10:53:20;;;;;;;5.23;3.50;;;;;;;;;;5093864;28;20206;-43
2023/09/30 10:55:48;;;;;;;4.77;3.03;;;;;;;;;;5089516;28;20222;-43
2023/09/30 10:58:15;;;;;;;8.13;3.23;;;;;;;;;;5090480;28;20207;-43
2023/09/30 11:00:53;;;;;;;6.43;3.07;;;;;;;;;;5087370;28;20214;-38
2023/09/30 11:03:21;;;;;;;7.77;3.47;;;;;;;;;;5088422;28;20203;-43
2023/09/30 11:05:51;;;;;;;6.73;3.33;;;;;;;;;;5090044;28;20203;-45
2023/09/30 11:08:22;;;;;;;5.77;3.10;;;;;;;;;;5084250;28;20337;-45
2023/09/30 11:10:50;;;;;;;7.67;3.67;;;;;;;;;;5088977;28;20654;-42
2023/09/30 11:13:17;;;;;;;7.83;3.80;;;;;;;;;;5089543;28;20315;-44
2023/09/30 11:15:45;;;;;;;4.17;2.93;;;;;;;;;;5091681;28;20681;-41
2023/09/30 11:18:15;;;;;;;5.23;3.57;;;;;;;;;;5090426;28;20214;-36
2023/09/30 11:20:43;;;;;;;5.60;3.10;;;;;;;;;;5087726;28;20266;-42
2023/09/30 11:23:10;;;;;;;4.43;3.20;;;;;;;;;;5090431;28;20229;-42
2023/09/30 11:25:39;;;;;;;6.73;3.60;;;;;;;;;;5087159;28;20207;-42
2023/09/30 11:28:16;;;;;;;6.13;3.67;;;;;;;;;;5089472;28;20211;-42
2023/09/30 11:30:58;;;;;;;7.37;3.77;;;;;;;;;;5093948;28;20222;-44
2023/09/30 11:33:26;;;;;;;5.83;3.43;;;;;;;;;;5094850;28;20200;-42
2023/09/30 11:36:03;;;;;;;5.57;3.70;;;;;;;;;;5089580;28;20222;-45
2023/09/30 11:38:31;;;;;;;7.97;3.87;;;;;;;;;;5089695;28;20286;-41
2023/09/30 11:41:03;;;;;;;9.83;4.00;;;;;;;;;;5082665;28;20315;-42
2023/09/30 11:43:31;;;;;;;9.40;4.40;;;;;;;;;;5088717;28;20238;-42
2023/09/30 11:46:08;;;;;;;10.17;4.80;;;;;;;;;;5086686;28;20208;-42
2023/09/30 11:48:36;;;;;;;7.87;4.43;;;;;;;;;;5090736;28;20214;-42
2023/09/30 11:51:04;;;;;;;8.67;4.03;;;;;;;;;;5091997;28;20226;-42
2023/09/30 11:53:31;;;;;;;10.40;4.23;;;;;;;;;;5092326;28;20217;-46
2023/09/30 11:55:59;;;;;;;7.03;4.23;;;;;;;;;;5081241;28;20702;-40
2023/09/30 11:58:32;;;;;;;10.37;4.77;;;;;;;;;;5090348;28;20306;-40
2023/09/30 12:00:59;;;;;;;8.50;4.30;;;;;;;;;;5087044;28;20231;-42
2023/09/30 12:03:27;;;;;;;10.53;4.77;;;;;;;;;;5082915;28;20677;-39
2023/09/30 12:05:55;;;;;;;8.97;4.00;;;;;;;;;;5092053;28;20634;-45
2023/09/30 12:08:22;;;;;;;8.97;5.00;;;;;;;;;;5086811;28;20303;-40
2023/09/30 12:10:50;;;;;;;9.93;4.77;;;;;;;;;;5080955;28;20227;-44
2023/09/30 12:13:17;;;;;;;6.67;3.90;;;;;;;;;;5087434;28;20306;-45
2023/09/30 12:15:46;;;;;;;7.70;4.33;;;;;;;;;;5090244;28;20219;-42
2023/09/30 12:18:16;;;;;;;9.23;4.73;;;;;;;;;;5089039;28;20231;-38
2023/09/30 12:20:44;;;;;;;8.10;4.47;;;;;;;;;;5091383;28;20285;-39
2023/09/30 12:23:11;;;;;;;8.10;3.97;;;;;;;;;;5086668;28;20302;-44
2023/09/30 12:25:38;;;;;;;9.90;5.20;;;;;;;;;;5084807;28;20270;-43
2023/09/30 12:28:08;;;;;;;10.93;5.60;;;;;;;;;;5086242;28;20214;-42
2023/09/30 12:30:35;;;;;;;7.30;4.23;;;;;;;;;;5080860;28;20312;-43
2023/09/30 12:33:04;;;;;;;12.23;6.77;;;;;;;;;;5088166;28;20206;-43
2023/09/30 12:35:37;;;;;;;11.03;4.80;;;;;;;;;;5085331;28;20223;-43
2023/09/30 12:38:05;;;;;;;7.30;4.90;;;;;;;;;;5084860;28;20290;-42
2023/09/30 12:40:52;;;;;;;11.57;5.23;;;;;;;;;;5077678;28;20239;-39
2023/09/30 12:43:19;;;;;;;12.80;4.90;;;;;;;;;;5086323;28;20227;-43
2023/09/30 12:45:46;;;;;;;8.97;5.47;;;;;;;;;;5092907;28;20208;-44
2023/09/30 12:48:17;;;;;;;11.47;5.37;;;;;;;;;;5086262;28;20290;-44
2023/09/30 12:50:49;;;;;;;9.90;4.60;;;;;;;;;;5090751;28;20224;-44
2023/09/30 12:53:16;;;;;;;10.03;4.93;;;;;;;;;;5092183;28;20211;-42
2023/09/30 12:55:43;;;;;;;11.73;5.60;;;;;;;;;;5088069;28;20685;-42
2023/09/30 12:58:11;;;;;;;9.87;4.43;;;;;;;;;;5089305;28;20212;-38
2023/09/30 13:00:38;;;;;;;8.43;4.20;;;;;;;;;;5092467;28;20219;-43
2023/09/30 13:03:07;;;;;;;8.47;4.80;;;;;;;;;;5084586;28;20203;-43
2023/09/30 13:05:36;;;;;;;8.57;4.27;;;;;;;;;;5089483;28;20219;-40
2023/09/30 13:08:03;;;;;;;7.10;4.20;;;;;;;;;;5090672;28;20275;-39
2023/09/30 13:10:30;;;;;;;7.97;4.30;;;;;;;;;;5079828;28;20229;-41
2023/09/30 13:12:57;;;;;;;7.43;4.17;;;;;;;;;;5091551;28;20218;-42
2023/09/30 13:15:26;;;;;;;8.13;4.63;;;;;;;;;;5088603;28;20260;-43
2023/09/30 13:17:53;;;;;;;7.30;4.50;;;;;;;;;;5071526;28;20201;-43
2023/09/30 13:20:21;;;;;;;9.33;4.60;;;;;;;;;;5084646;28;20230;-42
2023/09/30 13:22:50;;;;;;;6.57;3.77;;;;;;;;;;5083324;28;20308;-42
2023/09/30 13:25:17;;;;;;;11.03;5.30;;;;;;;;;;5082428;28;20212;-41
2023/09/30 13:27:44;;;;;;;8.67;4.10;;;;;;;;;;5085831;28;20231;-43
2023/09/30 13:30:13;;;;;;;7.43;3.60;;;;;;;;;;5090115;28;20302;-42
2023/09/30 13:32:40;;;;;;;7.27;4.03;;;;;;;;;;5086803;28;20198;-43
2023/09/30 13:35:13;;;;;;;6.73;4.00;;;;;;;;;;5080087;28;20279;-40
2023/09/30 13:37:41;;;;;;;6.90;4.33;;;;;;;;;;5073249;28;20291;-41
2023/09/30 13:40:11;;;;;;;7.57;3.97;;;;;;;;;;5070880;28;20232;-42
2023/09/30 13:42:45;;;;;;;8.30;4.13;;;;;;;;;;5086018;28;20206;-41
2023/09/30 13:45:12;;;;;;;7.80;3.77;;;;;;;;;;5086781;28;20291;-40
2023/09/30 13:47:40;;;;;;;6.50;4.20;;;;;;;;;;5084877;28;20200;-43
2023/09/30 13:50:08;;;;;;;8.27;4.10;;;;;;;;;;5075884;28;20295;-40
2023/09/30 13:52:35;;;;;;;7.13;3.73;;;;;;;;;;5075465;28;20298;-42
2023/09/30 13:55:03;;;;;;;8.03;3.90;;;;;;;;;;5076637;28;20309;-45
2023/09/30 13:57:31;;;;;;;7.43;3.63;;;;;;;;;;5081853;28;20204;-41
2023/09/30 13:59:59;;;;;;;5.47;3.70;;;;;;;;;;5076790;28;20345;-42
2023/09/30 14:02:26;;;;;;;6.43;3.77;;;;;;;;;;5081267;28;20218;-39
2023/09/30 14:04:54;;;;;;;7.63;4.00;;;;;;;;;;5079018;28;20206;-42
2023/09/30 14:07:21;;;;;;;7.83;3.40;;;;;;;;;;5093549;28;20204;-42
2023/09/30 14:09:52;;;;;;;7.13;4.03;;;;;;;;;;5087190;28;20228;-44
2023/09/30 14:12:19;;;;;;;6.37;3.47;;;;;;;;;;5091371;28;20231;-43
2023/09/30 14:14:48;;;;;;;5.97;3.70;;;;;;;;;;5086764;28;20563;-41
2023/09/30 14:17:15;;;;;;;7.57;3.60;;;;;;;;;;5094112;28;20338;-42
2023/09/30 14:19:42;;;;;;;7.47;3.83;;;;;;;;;;5085373;28;20233;-41
2023/09/30 14:22:09;;;;;;;9.43;3.90;;;;;;;;;;5087236;28;20211;-42
2023/09/30 14:24:37;;;;;;;6.27;3.33;;;;;;;;;;5091432;28;20208;-42
2023/09/30 14:27:04;;;;;;;6.90;3.70;;;;;;;;;;5087642;28;20203;-45
2023/09/30 14:29:31;;;;;;;5.83;3.53;;;;;;;;;;5084788;28;20306;-45
2023/09/30 14:32:01;;;;;;;6.63;3.43;;;;;;;;;;5086280;28;20203;-42
2023/09/30 14:34:28;;;;;;;7.07;3.83;;;;;;;;;;5091993;28;20218;-43
2023/09/30 14:36:55;;;;;;;6.70;3.77;;;;;;;;;;5090496;28;20227;-41
2023/09/30 14:39:23;;;;;;;8.30;4.43;;;;;;;;;;5077678;28;20233;-41
2023/09/30 14:41:50;;;;;;;7.37;3.80;;;;;;;;;;5091311;28;20327;-43
2023/09/30 14:44:17;;;;;;;9.80;4.33;;;;;;;;;;5092675;28;20235;-43
2023/09/30 14:46:45;;;;;;;7.90;3.90;;;;;;;;;;5082407;28;20270;-41
2023/09/30 14:49:13;;;;;;;7.70;3.50;;;;;;;;;;5082768;28;20303;-42
2023/09/30 14:51:50;;;;;;;8.00;3.60;;;;;;;;;;5086479;28;20688;-43